createdAt,value
2018-11-22T12:17:53.261Z,5.40
2018-11-22T12:20:20.940Z,5.30
2018-11-22T12:22:49.403Z,5.30
2018-11-22T12:25:18.212Z,5.40
2018-11-22T12:27:46.629Z,5.30
2018-11-22T12:30:16.572Z,5.50
2018-11-22T12:32:46.466Z,5.60
2018-11-22T12:36:16.962Z,5.70
2018-11-22T12:38:44.981Z,5.70
2018-11-22T12:41:12.256Z,5.80
2018-11-22T12:43:39.537Z,5.70
2018-11-22T12:46:06.817Z,5.70
2018-11-22T12:48:34.273Z,5.70
2018-11-22T12:51:01.565Z,5.70
2018-11-22T12:53:28.949Z,5.60
2018-11-22T12:55:56.251Z,5.60
2018-11-22T12:58:24.023Z,5.50
2018-11-22T13:00:51.353Z,5.50
2018-11-22T13:03:18.624Z,5.50
2018-11-22T13:05:45.849Z,5.60
2018-11-22T13:08:13.223Z,5.60
2018-11-22T13:10:40.534Z,5.60
2018-11-22T13:13:07.874Z,5.60
2018-11-22T13:15:35.324Z,5.60
2018-11-22T13:18:02.672Z,6.30
2018-11-22T13:20:29.974Z,5.60
2018-11-22T13:22:57.315Z,5.60
2018-11-22T13:25:24.581Z,5.60
2018-11-22T13:27:51.829Z,5.70
2018-11-22T13:30:20.760Z,5.70
2018-11-22T13:32:48.640Z,5.70
2018-11-22T13:35:16.593Z,5.70
2018-11-22T13:37:44.996Z,5.80
2018-11-22T13:40:12.564Z,6.60
2018-11-22T13:42:40.860Z,5.90
2018-11-22T13:45:10.432Z,5.60
2018-11-22T13:47:39.329Z,5.60
2018-11-22T13:50:12.532Z,5.70
2018-11-22T13:52:39.854Z,5.70
2018-11-22T13:55:07.106Z,5.70
2018-11-22T13:57:35.010Z,5.60
2018-11-22T14:00:02.285Z,5.60
2018-11-22T14:02:29.538Z,5.60
2018-11-22T14:04:56.857Z,5.50
2018-11-22T14:07:24.093Z,5.40
2018-11-22T14:09:51.385Z,5.40
2018-11-22T14:12:20.661Z,5.40
2018-11-22T14:14:47.853Z,5.30
2018-11-22T14:17:15.062Z,5.30
2018-11-22T14:19:42.652Z,5.30
2018-11-22T14:22:09.911Z,5.20
2018-11-22T14:24:37.112Z,5.20
2018-11-22T14:27:04.724Z,5.20
2018-11-22T14:29:31.975Z,5.20
2018-11-22T14:31:59.217Z,5.30
2018-11-22T14:34:26.424Z,5.30
2018-11-22T14:36:53.645Z,5.20
2018-11-22T14:39:20.871Z,5.30
2018-11-22T14:41:48.097Z,5.20
2018-11-22T14:44:15.320Z,5.20
2018-11-22T14:46:42.580Z,5.20
2018-11-22T14:49:09.829Z,5.00
2018-11-22T14:51:40.785Z,5.20
2018-11-22T14:54:08.121Z,5.20
2018-11-22T14:56:35.355Z,5.20
2018-11-22T14:59:02.627Z,5.20
2018-11-22T15:01:29.860Z,5.10
2018-11-22T15:03:57.104Z,5.10
2018-11-22T15:06:24.341Z,5.10
2018-11-22T15:08:51.560Z,5.10
2018-11-22T15:11:18.806Z,5.10
2018-11-22T15:13:46.074Z,5.10
2018-11-22T15:16:13.282Z,5.00
2018-11-22T15:18:40.621Z,5.10
2018-11-22T15:21:07.936Z,5.00
2018-11-22T15:23:35.222Z,5.00
2018-11-22T15:26:02.494Z,5.00
2018-11-22T15:28:29.739Z,4.90
2018-11-22T15:30:56.971Z,4.90
2018-11-22T15:33:24.224Z,4.90
2018-11-22T15:35:51.601Z,4.90
2018-11-22T15:38:18.823Z,4.90
2018-11-22T15:40:46.117Z,4.80
2018-11-22T15:43:13.344Z,6.40
2018-11-22T15:45:40.664Z,4.90
2018-11-22T15:48:07.959Z,4.90
2018-11-22T15:50:35.179Z,4.80
2018-11-22T15:53:02.436Z,4.80
2018-11-22T15:55:29.857Z,4.80
2018-11-22T15:57:59.279Z,4.80
2018-11-22T16:00:31.092Z,4.80
2018-11-22T16:02:58.833Z,4.80
2018-11-22T16:05:26.877Z,4.80
2018-11-22T16:07:54.136Z,6.10
2018-11-22T16:10:26.889Z,4.80
2018-11-22T16:12:51.748Z,4.70
2018-11-22T16:15:21.053Z,4.80
2018-11-22T16:17:48.300Z,4.70
2018-11-22T16:20:15.536Z,4.70
2018-11-22T16:22:42.832Z,4.70
2018-11-22T16:25:11.295Z,4.70
2018-11-22T16:27:38.660Z,4.70
2018-11-22T16:30:09.469Z,4.90
2018-11-22T16:32:36.917Z,4.70
2018-11-22T16:35:06.264Z,4.70
2018-11-22T16:37:33.517Z,4.60
2018-11-22T16:40:00.728Z,4.60
2018-11-22T16:42:27.990Z,4.60
2018-11-22T16:44:55.335Z,4.50
2018-11-22T16:47:22.643Z,4.50
2018-11-22T16:49:49.928Z,4.50
2018-11-22T16:52:17.205Z,4.40
2018-11-22T16:54:44.453Z,4.40
2018-11-22T16:57:11.731Z,4.40
2018-11-22T16:59:38.992Z,4.30
2018-11-22T17:02:06.371Z,4.30
2018-11-22T17:04:33.605Z,4.30
2018-11-22T17:07:01.039Z,4.20
2018-11-22T17:09:28.716Z,4.20
2018-11-22T17:11:55.969Z,4.20
2018-11-22T17:14:23.192Z,4.30
2018-11-22T17:16:50.512Z,4.30
2018-11-22T17:19:17.741Z,4.30
2018-11-22T17:21:44.975Z,4.30
2018-11-22T17:24:12.204Z,4.30
2018-11-22T17:26:39.452Z,4.20
2018-11-22T17:29:06.737Z,4.30
2018-11-22T17:31:34.024Z,4.30
2018-11-22T17:34:01.273Z,4.30
2018-11-22T17:36:28.557Z,4.30
2018-11-22T17:38:55.815Z,4.90
2018-11-22T17:41:23.093Z,4.40
2018-11-22T17:43:50.532Z,4.30
2018-11-22T17:46:17.842Z,4.40
2018-11-22T17:48:45.081Z,4.40
2018-11-22T17:51:12.356Z,4.40
2018-11-22T17:53:39.619Z,4.40
2018-11-22T17:56:06.861Z,4.30
2018-11-22T17:58:34.436Z,4.30
2018-11-22T18:01:01.674Z,4.30
2018-11-22T18:03:28.888Z,4.30
2018-11-22T18:05:56.180Z,4.30
2018-11-22T18:08:23.457Z,4.30
2018-11-22T18:10:50.676Z,4.30
2018-11-22T18:13:17.939Z,4.30
2018-11-22T18:15:50.923Z,4.30
2018-11-22T18:18:18.156Z,4.30
2018-11-22T18:20:45.384Z,4.30
2018-11-22T18:23:12.595Z,4.30
2018-11-22T18:25:39.913Z,4.30
2018-11-22T18:28:07.263Z,4.30
2018-11-22T18:30:34.618Z,4.20
2018-11-22T18:33:03.173Z,4.20
2018-11-22T18:35:30.667Z,4.20
2018-11-22T18:37:58.060Z,4.20
2018-11-22T18:40:26.893Z,4.20
2018-11-22T18:42:55.140Z,4.20
2018-11-22T18:45:28.288Z,4.20
2018-11-22T18:47:55.716Z,4.20
2018-11-22T18:50:24.220Z,4.20
2018-11-22T18:52:51.436Z,4.20
2018-11-22T18:55:18.701Z,4.20
2018-11-22T18:57:46.133Z,4.10
2018-11-22T19:00:15.720Z,4.10
2018-11-22T19:02:42.997Z,4.10
2018-11-22T19:05:11.586Z,4.10
2018-11-22T19:07:39.374Z,4.10
2018-11-22T19:10:10.584Z,4.10
2018-11-22T19:12:37.896Z,4.10
2018-11-22T19:15:06.985Z,4.10
2018-11-22T19:17:34.340Z,4.10
2018-11-22T19:20:08.845Z,4.10
2018-11-22T19:22:29.831Z,4.10
2018-11-22T19:24:57.079Z,4.00
2018-11-22T19:27:24.361Z,4.00
2018-11-22T19:29:51.747Z,3.90
2018-11-22T19:32:18.985Z,3.90
2018-11-22T19:34:46.309Z,3.90
2018-11-22T19:37:13.529Z,3.90
2018-11-22T19:39:40.759Z,3.90
2018-11-22T19:42:08.105Z,3.90
2018-11-22T19:44:35.552Z,4.00
2018-11-22T19:47:02.826Z,4.00
2018-11-22T19:49:30.210Z,3.90
2018-11-22T19:51:57.525Z,3.90
2018-11-22T19:54:24.762Z,3.90
2018-11-22T19:56:52.003Z,3.90
2018-11-22T19:59:19.234Z,3.80
2018-11-22T20:01:46.574Z,3.70
2018-11-22T20:04:13.808Z,3.70
2018-11-22T20:06:41.596Z,3.80
2018-11-22T20:09:10.157Z,3.80
2018-11-22T20:11:37.467Z,4.90
2018-11-22T20:14:05.118Z,3.90
2018-11-22T20:16:32.453Z,3.90
2018-11-22T20:18:59.732Z,3.80
2018-11-22T20:21:27.682Z,3.80
2018-11-22T20:23:54.324Z,3.80
2018-11-22T20:26:21.577Z,3.80
2018-11-22T20:28:48.862Z,3.80
2018-11-22T20:31:16.113Z,3.90
2018-11-22T20:33:43.352Z,3.80
2018-11-22T20:36:10.586Z,3.60
2018-11-22T20:38:37.900Z,3.80
2018-11-22T20:41:05.161Z,3.80
2018-11-22T20:43:32.430Z,3.90
2018-11-22T20:45:59.686Z,3.90
2018-11-22T20:48:26.937Z,3.90
2018-11-22T20:50:54.172Z,3.90
2018-11-22T20:53:21.496Z,3.80
2018-11-22T20:55:48.730Z,3.80
2018-11-22T20:58:15.989Z,3.80
2018-11-22T21:00:43.249Z,3.80
2018-11-22T21:03:10.512Z,3.80
2018-11-22T21:05:37.721Z,3.80
2018-11-22T21:08:04.990Z,3.80
2018-11-22T21:10:32.824Z,3.80
2018-11-22T21:13:00.293Z,3.80
2018-11-22T21:15:38.945Z,6.00
2018-11-22T21:18:07.218Z,3.30
2018-11-22T21:20:36.938Z,3.80
2018-11-22T21:23:04.395Z,3.70
2018-11-22T21:25:31.666Z,3.70
2018-11-22T21:27:58.906Z,3.60
2018-11-22T21:30:28.197Z,3.60
2018-11-22T21:32:56.133Z,3.50
2018-11-22T21:35:23.729Z,3.40
2018-11-22T21:37:52.178Z,3.40
2018-11-22T21:40:19.986Z,3.40
2018-11-22T21:42:47.230Z,3.40
2018-11-22T21:45:16.931Z,3.40
2018-11-22T21:47:44.170Z,3.40
2018-11-22T21:50:12.642Z,3.40
2018-11-22T21:52:39.973Z,3.40
2018-11-22T21:55:09.201Z,3.40
2018-11-22T21:57:37.477Z,3.50
2018-11-22T22:00:08.633Z,3.50
2018-11-22T22:02:35.883Z,3.50
2018-11-22T22:05:03.253Z,3.50
2018-11-22T22:07:30.493Z,3.40
2018-11-22T22:09:57.730Z,3.40
2018-11-22T22:12:24.972Z,3.30
2018-11-22T22:14:52.219Z,3.30
2018-11-22T22:17:19.459Z,3.30
2018-11-22T22:19:46.793Z,3.30
2018-11-22T22:22:14.024Z,3.30
2018-11-22T22:24:41.236Z,3.20
2018-11-22T22:27:08.468Z,3.20
2018-11-22T22:29:35.696Z,3.30
2018-11-22T22:32:02.981Z,3.30
2018-11-22T22:34:30.320Z,3.20
2018-11-22T22:36:57.590Z,3.30
2018-11-22T22:39:24.838Z,3.30
2018-11-22T22:41:52.312Z,3.30
2018-11-22T22:44:19.566Z,3.30
2018-11-22T22:46:46.830Z,3.40
2018-11-22T22:49:14.121Z,3.40
2018-11-22T22:51:41.376Z,3.30
2018-11-22T22:54:08.634Z,3.30
2018-11-22T22:56:35.888Z,3.30
2018-11-22T22:59:03.129Z,3.30
2018-11-22T23:01:30.409Z,3.30
2018-11-22T23:03:57.701Z,3.40
2018-11-22T23:06:24.984Z,3.30
2018-11-22T23:08:52.237Z,3.40
2018-11-22T23:11:19.510Z,3.40
2018-11-22T23:13:46.773Z,3.40
2018-11-22T23:16:14.048Z,3.40
2018-11-22T23:18:41.428Z,3.40
2018-11-22T23:21:08.705Z,3.30
2018-11-22T23:23:35.980Z,3.30
2018-11-22T23:26:03.275Z,3.30
2018-11-22T23:28:30.529Z,3.30
2018-11-22T23:30:57.785Z,3.30
2018-11-22T23:33:25.189Z,3.30
2018-11-22T23:35:52.429Z,3.30
2018-11-22T23:38:19.696Z,3.30
2018-11-22T23:40:47.076Z,3.30
2018-11-22T23:43:14.329Z,3.30
2018-11-22T23:45:41.602Z,3.40
2018-11-22T23:48:08.818Z,3.30
2018-11-22T23:50:36.073Z,3.40
2018-11-22T23:53:04.088Z,3.40
2018-11-22T23:55:31.369Z,3.40
2018-11-22T23:57:58.610Z,3.50
